Time;durP1;ratioP1;P1;durP2;ratioP2;P2;SDS_P1;SDS_P2;PMS_P1;PMS_P2;Temp;Humidity;BMP_temperature;BMP_pressure;BME280_temperature;BME280_humidity;BME280_pressure;Samples;Min_cycle;Max_cycle;Signal;HPM_P1;HPM_P2
2020/12/22 00:01:36;;;;;;;5.45;3.00;;;;;;;18.83;57.93;100455.78;4800435;29;20026;-70
2020/12/22 00:04:01;;;;;;;4.45;2.60;;;;;;;18.84;57.91;100451.41;4801811;29;20057;-70
2020/12/22 00:06:27;;;;;;;5.07;2.63;;;;;;;18.81;57.92;100447.09;4801579;29;20514;-70
2020/12/22 00:08:52;;;;;;;5.15;2.63;;;;;;;18.80;57.81;100440.13;4805088;29;20505;-69
2020/12/22 00:11:18;;;;;;;4.80;3.13;;;;;;;18.82;57.82;100440.09;4785774;29;20064;-70
2020/12/22 00:13:44;;;;;;;4.95;2.50;;;;;;;18.82;57.86;100440.97;4801116;29;20035;-70
2020/12/22 00:16:09;;;;;;;3.60;2.47;;;;;;;18.78;57.92;100430.53;4804601;29;20046;-69
2020/12/22 00:18:34;;;;;;;4.20;2.05;;;;;;;18.81;57.88;100434.00;4803190;29;20039;-70
2020/12/22 00:21:00;;;;;;;5.53;2.72;;;;;;;18.80;57.86;100437.50;4804108;29;20087;-70
2020/12/22 00:23:25;;;;;;;5.05;2.55;;;;;;;18.78;57.74;100430.53;4800725;29;20042;-70
2020/12/22 00:25:51;;;;;;;3.63;2.45;;;;;;;18.76;57.88;100438.41;4801992;29;20475;-70
2020/12/22 00:28:17;;;;;;;4.78;2.60;;;;;;;18.79;57.86;100432.28;4816971;29;20133;-69
2020/12/22 00:30:43;;;;;;;4.60;3.00;;;;;;;18.79;57.80;100429.66;4803725;29;20129;-70
2020/12/22 00:33:09;;;;;;;3.83;1.95;;;;;;;18.79;57.74;100432.28;4809769;29;20035;-69
2020/12/22 00:35:34;;;;;;;6.10;2.55;;;;;;;18.78;57.86;100436.66;4802837;29;20050;-70
2020/12/22 00:38:00;;;;;;;3.53;2.08;;;;;;;18.78;57.82;100457.59;4804548;29;20509;-70
2020/12/22 00:40:26;;;;;;;5.70;2.72;;;;;;;18.77;57.82;100450.63;4800523;29;20038;-69
2020/12/22 00:42:52;;;;;;;5.60;2.35;;;;;;;18.73;57.72;100433.19;4798755;29;20489;-69
2020/12/22 00:45:21;;;;;;;5.47;2.72;;;;;;;18.74;57.98;100442.78;4803996;29;20488;-69
2020/12/22 00:47:46;;;;;;;2.97;1.85;;;;;;;18.71;57.75;100429.72;4802369;29;20085;-69
2020/12/22 00:50:12;;;;;;;4.07;2.25;;;;;;;18.73;57.58;100427.97;4786977;29;20510;-69
2020/12/22 00:52:37;;;;;;;4.18;1.92;;;;;;;18.73;57.90;100416.63;4799109;29;20546;-69
2020/12/22 00:55:04;;;;;;;5.72;1.90;;;;;;;18.74;57.76;100429.69;4774004;29;20049;-70
2020/12/22 00:57:29;;;;;;;3.83;1.83;;;;;;;18.75;57.70;100436.69;4803936;29;20038;-69
2020/12/22 00:59:55;;;;;;;3.38;2.00;;;;;;;18.71;57.76;100428.88;4788327;29;20027;-70
2020/12/22 01:02:20;;;;;;;3.55;2.00;;;;;;;18.74;57.91;100439.31;4802654;29;20045;-69
2020/12/22 01:04:47;;;;;;;3.35;1.85;;;;;;;18.70;57.73;100425.38;4805689;29;20039;-69
2020/12/22 01:07:13;;;;;;;3.83;2.08;;;;;;;18.73;57.88;100433.19;4802124;29;20028;-70
2020/12/22 01:09:38;;;;;;;3.13;1.70;;;;;;;18.73;57.75;100450.66;4802351;29;20037;-70
2020/12/22 01:12:05;;;;;;;3.20;2.00;;;;;;;18.72;57.78;100428.84;4802756;29;20139;-73
2020/12/22 01:14:31;;;;;;;3.97;1.75;;;;;;;18.70;57.75;100438.47;4805958;29;20112;-73
2020/12/22 01:17:04;;;;;;;4.75;2.13;;;;;;;18.64;57.85;100441.19;4787111;29;20034;-73
2020/12/22 01:19:29;;;;;;;2.88;1.88;;;;;;;18.69;57.88;100435.91;4805281;29;20035;-73
2020/12/22 01:21:55;;;;;;;2.97;1.80;;;;;;;18.70;57.94;100440.22;4787612;29;20035;-70
2020/12/22 01:24:24;;;;;;;4.97;2.10;;;;;;;18.70;57.67;100453.31;4788292;29;20054;-70
2020/12/22 01:26:50;;;;;;;5.50;2.88;;;;;;;18.70;57.73;100442.84;4798921;29;20037;-73
2020/12/22 01:29:16;;;;;;;3.30;1.80;;;;;;;18.69;57.88;100446.38;4795206;29;20034;-73
2020/12/22 01:31:41;;;;;;;4.03;2.30;;;;;;;18.67;57.73;100450.75;4808177;29;20022;-73
2020/12/22 01:34:07;;;;;;;1.75;1.27;;;;;;;18.68;57.70;100447.25;4807575;29;20117;-72
2020/12/22 01:36:33;;;;;;;2.50;1.30;;;;;;;18.69;57.46;100449.88;4773137;30;20046;-72
2020/12/22 01:38:58;;;;;;;2.55;1.35;;;;;;;18.66;57.71;100449.88;4797628;29;20530;-73
2020/12/22 01:41:23;;;;;;;2.90;1.73;;;;;;;18.66;57.82;100441.16;4806158;29;20082;-72
2020/12/22 01:44:14;;;;;;;2.42;1.40;;;;;;;18.67;57.75;100459.50;4803411;29;20117;-72
2020/12/22 01:46:39;;;;;;;2.05;1.23;;;;;;;18.68;57.83;100462.97;4797514;29;20034;-72
2020/12/22 01:49:16;;;;;;;3.25;1.50;;;;;;;18.63;57.85;100452.53;4796975;29;20035;-72
2020/12/22 01:51:43;;;;;;;3.50;1.30;;;;;;;18.67;57.89;100466.47;4805183;29;20058;-72
2020/12/22 01:54:08;;;;;;;1.67;1.30;;;;;;;18.67;57.82;100471.72;4795505;29;20047;-72
2020/12/22 01:56:36;;;;;;;2.75;1.40;;;;;;;18.66;57.83;100464.75;4803025;29;20122;-72
2020/12/22 01:59:01;;;;;;;2.63;1.33;;;;;;;18.67;57.46;100463.84;4802851;29;20042;-72
2020/12/22 02:01:30;;;;;;;3.35;1.30;;;;;;;18.66;57.89;100463.00;4786406;29;20080;-72
2020/12/22 02:03:56;;;;;;;3.58;1.52;;;;;;;18.64;57.67;100475.22;4780846;29;20065;-72
2020/12/22 02:06:22;;;;;;;2.28;1.52;;;;;;;18.63;57.75;100477.88;4789820;29;20059;-72
2020/12/22 02:08:47;;;;;;;2.63;1.65;;;;;;;18.65;57.97;100470.84;4808819;29;20514;-73
2020/12/22 02:11:21;;;;;;;2.40;1.20;;;;;;;18.63;57.54;100468.25;4792529;29;20103;-73
2020/12/22 02:13:47;;;;;;;2.40;1.58;;;;;;;18.62;57.68;100470.88;4806130;29;20483;-73
2020/12/22 02:16:12;;;;;;;2.30;1.17;;;;;;;18.61;57.71;100469.16;4772543;29;20103;-72
2020/12/22 02:18:37;;;;;;;3.33;1.40;;;;;;;18.61;57.87;100461.28;4808075;29;20135;-73
2020/12/22 02:21:03;;;;;;;2.00;1.05;;;;;;;18.61;57.82;100475.25;4805989;29;20121;-72
2020/12/22 02:23:28;;;;;;;3.10;1.20;;;;;;;18.62;57.89;100479.63;4807940;29;20031;-73
2020/12/22 02:25:53;;;;;;;1.90;0.95;;;;;;;18.62;57.92;100491.84;4797232;29;20085;-73
2020/12/22 02:28:19;;;;;;;2.88;1.60;;;;;;;18.62;57.90;100476.13;4808245;29;20070;-72
2020/12/22 02:30:44;;;;;;;3.60;1.65;;;;;;;18.62;58.00;100495.31;4807771;29;20043;-72
2020/12/22 02:33:11;;;;;;;2.20;0.95;;;;;;;18.62;58.01;100499.69;4795493;29;20042;-72
2020/12/22 02:35:36;;;;;;;3.45;1.48;;;;;;;18.60;58.08;100486.63;4814038;29;20046;-72
2020/12/22 02:38:01;;;;;;;1.73;1.00;;;;;;;18.63;57.82;100504.91;4804206;29;20609;-72
2020/12/22 02:40:27;;;;;;;4.07;1.35;;;;;;;18.63;57.73;100488.34;4798499;29;20091;-72
2020/12/22 02:42:52;;;;;;;2.53;1.00;;;;;;;18.62;57.69;100491.84;4801235;29;20039;-72
2020/12/22 02:45:17;;;;;;;1.98;0.90;;;;;;;18.59;57.67;100484.00;4798955;29;20129;-72
2020/12/22 02:47:43;;;;;;;1.98;1.10;;;;;;;18.60;57.92;100501.47;4817476;29;20063;-73
2020/12/22 02:50:08;;;;;;;2.55;1.30;;;;;;;18.60;57.82;100501.47;4818264;29;20478;-72
2020/12/22 02:52:34;;;;;;;2.40;1.45;;;;;;;18.60;57.88;100496.22;4820468;29;20042;-72
2020/12/22 02:54:59;;;;;;;2.38;0.98;;;;;;;18.60;57.85;100498.84;4809104;29;20031;-72
2020/12/22 02:57:24;;;;;;;1.95;1.23;;;;;;;18.59;57.86;100499.72;4806781;29;20034;-73
2020/12/22 02:59:50;;;;;;;2.65;1.23;;;;;;;18.57;57.75;100499.69;4806798;29;20062;-73
2020/12/22 03:02:15;;;;;;;3.83;1.30;;;;;;;18.58;57.79;100509.31;4804842;29;20035;-72
2020/12/22 03:04:41;;;;;;;2.47;1.10;;;;;;;18.59;57.87;100508.44;4786634;30;20035;-72
2020/12/22 03:07:06;;;;;;;2.83;1.20;;;;;;;18.60;57.79;100509.31;4802498;29;20191;-73
2020/12/22 03:09:32;;;;;;;1.83;1.05;;;;;;;18.59;58.08;100513.69;4807567;29;20031;-72
2020/12/22 03:11:57;;;;;;;2.17;1.20;;;;;;;18.61;57.61;100518.91;4805769;29;20027;-69
2020/12/22 03:14:22;;;;;;;1.98;1.00;;;;;;;18.60;57.74;100507.56;4808488;29;20394;-70
2020/12/22 03:16:48;;;;;;;2.92;1.15;;;;;;;18.57;57.86;100518.03;4803629;29;20035;-70
2020/12/22 03:19:13;;;;;;;4.25;1.55;;;;;;;18.59;57.70;100510.19;4793849;29;20173;-70
2020/12/22 03:21:38;;;;;;;3.22;1.60;;;;;;;18.57;57.88;100518.91;4786954;29;20042;-70
2020/12/22 03:24:04;;;;;;;2.80;1.20;;;;;;;18.57;57.58;100521.50;4804486;29;20080;-70
2020/12/22 03:26:29;;;;;;;4.35;1.65;;;;;;;18.57;57.89;100518.03;4804971;29;20451;-70
2020/12/22 03:28:54;;;;;;;2.65;1.00;;;;;;;18.55;57.62;100518.06;4804889;29;20057;-70
2020/12/22 03:31:20;;;;;;;3.60;1.80;;;;;;;18.56;57.60;100521.56;4804160;29;20041;-70
2020/12/22 03:33:45;;;;;;;3.78;2.10;;;;;;;18.55;57.72;100519.81;4804022;29;20042;-70
2020/12/22 03:36:10;;;;;;;2.42;1.15;;;;;;;18.57;57.79;100523.25;4799368;29;20035;-69
2020/12/22 03:38:36;;;;;;;3.88;1.52;;;;;;;18.56;57.72;100522.41;4801829;29;20046;-70
2020/12/22 03:41:01;;;;;;;3.30;1.65;;;;;;;18.56;57.79;100518.94;4783421;29;20079;-70
2020/12/22 03:43:26;;;;;;;3.80;1.70;;;;;;;18.53;57.75;100516.34;4802471;29;20117;-70
2020/12/22 03:45:55;;;;;;;3.88;1.13;;;;;;;18.54;57.84;100523.31;4798489;29;20031;-70
2020/12/22 03:48:21;;;;;;;2.78;0.98;;;;;;;18.52;57.70;100522.47;4803358;29;20035;-69
2020/12/22 03:50:46;;;;;;;3.17;1.20;;;;;;;18.55;57.74;100522.44;4786276;29;20114;-70
2020/12/22 03:53:12;;;;;;;2.55;1.05;;;;;;;18.54;57.72;100518.97;4801082;29;20534;-70
2020/12/22 03:55:37;;;;;;;3.28;1.45;;;;;;;18.55;57.73;100523.31;4788456;29;20487;-70
2020/12/22 03:58:02;;;;;;;2.08;1.10;;;;;;;18.55;57.84;100530.31;4816667;29;20203;-70
2020/12/22 04:00:27;;;;;;;2.25;1.13;;;;;;;18.53;57.66;100514.59;4796750;29;20035;-70
2020/12/22 04:02:53;;;;;;;2.83;1.48;;;;;;;18.52;57.83;100518.09;4798391;29;20069;-70
2020/12/22 04:05:18;;;;;;;3.47;1.30;;;;;;;18.51;57.88;100521.59;4784569;29;20130;-70
2020/12/22 04:07:43;;;;;;;1.65;0.93;;;;;;;18.49;57.84;100520.75;4785646;29;20118;-70
2020/12/22 04:10:09;;;;;;;2.17;0.98;;;;;;;18.54;57.85;100523.31;4804466;29;20053;-70
2020/12/22 04:12:35;;;;;;;2.67;1.00;;;;;;;18.55;57.66;100525.06;4805689;29;20070;-70
2020/12/22 04:15:00;;;;;;;2.95;1.13;;;;;;;18.52;57.82;100528.56;4815700;29;20506;-70
2020/12/22 04:17:26;;;;;;;2.85;1.13;;;;;;;18.52;57.69;100540.78;4803552;29;20042;-70
2020/12/22 04:19:51;;;;;;;2.72;1.48;;;;;;;18.49;57.83;100533.84;4804722;29;20113;-70
2020/12/22 04:22:16;;;;;;;3.97;1.80;;;;;;;18.46;57.66;100532.97;4804391;29;20115;-70
2020/12/22 04:24:42;;;;;;;2.13;1.00;;;;;;;18.52;57.96;100546.03;4801200;29;20035;-70
2020/12/22 04:27:07;;;;;;;2.13;1.20;;;;;;;18.49;57.83;100552.16;4801322;29;20045;-70
2020/12/22 04:29:33;;;;;;;3.75;1.55;;;;;;;18.50;57.56;100555.66;4804750;29;20034;-70
2020/12/22 04:31:58;;;;;;;2.53;1.40;;;;;;;18.51;57.76;100562.63;4787127;29;20484;-70
2020/12/22 04:34:25;;;;;;;1.95;0.90;;;;;;;18.49;57.70;100565.25;4809195;29;20038;-70
2020/12/22 04:36:50;;;;;;;2.03;0.98;;;;;;;18.52;57.74;100569.59;4778825;29;20035;-70
2020/12/22 04:39:16;;;;;;;4.15;1.15;;;;;;;18.51;57.75;100576.59;4809372;29;20042;-70
2020/12/22 04:41:47;;;;;;;2.92;1.10;;;;;;;18.48;57.69;100570.50;4805364;29;20034;-70
2020/12/22 04:44:12;;;;;;;3.35;1.40;;;;;;;18.51;57.77;100581.81;4804072;29;20125;-70
2020/12/22 04:46:38;;;;;;;2.15;1.00;;;;;;;18.48;57.82;100580.97;4800878;29;20141;-70
2020/12/22 04:49:07;;;;;;;3.17;0.90;;;;;;;18.50;57.62;100589.69;4800814;29;20530;-70
2020/12/22 04:51:34;;;;;;;3.40;1.10;;;;;;;18.50;57.68;100584.44;4806441;29;20038;-70
2020/12/22 04:54:00;;;;;;;2.83;1.27;;;;;;;18.49;57.73;100606.28;4809611;29;20452;-70
2020/12/22 04:56:29;;;;;;;2.72;1.23;;;;;;;18.50;57.57;100602.78;4801708;29;20074;-70
2020/12/22 04:58:54;;;;;;;2.40;1.10;;;;;;;18.46;57.95;100604.56;4809702;29;20039;-70
2020/12/22 05:01:20;;;;;;;2.85;1.23;;;;;;;18.47;57.71;100618.50;4805111;29;20042;-70
2020/12/22 05:03:46;;;;;;;4.10;1.50;;;;;;;18.45;58.05;100615.03;4798366;29;20556;-70
2020/12/22 05:06:11;;;;;;;2.63;1.15;;;;;;;18.44;57.95;100615.91;4782911;29;20051;-70
2020/12/22 05:08:36;;;;;;;2.38;1.20;;;;;;;18.46;58.02;100617.63;4798895;29;20034;-69
2020/12/22 05:11:02;;;;;;;4.38;1.60;;;;;;;18.45;57.84;100609.78;4803030;29;20043;-68
2020/12/22 05:13:27;;;;;;;1.98;1.25;;;;;;;18.44;57.96;100619.41;4811280;29;20443;-69
2020/12/22 05:15:53;;;;;;;2.20;0.75;;;;;;;18.45;57.66;100628.13;4790454;29;20050;-69
2020/12/22 05:18:23;;;;;;;4.35;1.50;;;;;;;18.46;57.78;100619.38;4806054;29;20083;-70
2020/12/22 05:20:50;;;;;;;1.73;1.20;;;;;;;18.46;57.88;100632.47;4800606;29;20086;-69
2020/12/22 05:23:19;;;;;;;3.75;1.13;;;;;;;18.47;57.74;100621.13;4800808;29;20067;-70
2020/12/22 05:25:47;;;;;;;3.00;1.20;;;;;;;18.45;57.77;100629.00;4801543;29;20043;-70
2020/12/22 05:28:16;;;;;;;2.42;1.08;;;;;;;18.44;57.87;100634.25;4803643;29;20041;-70
2020/12/22 05:30:43;;;;;;;2.47;1.20;;;;;;;18.43;57.82;100633.41;4798859;29;20038;-72
2020/12/22 05:33:08;;;;;;;2.65;1.27;;;;;;;18.44;57.97;100639.47;4799915;29;20495;-72
2020/12/22 05:35:38;;;;;;;3.80;1.38;;;;;;;18.42;57.87;100638.66;4801195;29;20043;-72
2020/12/22 05:38:05;;;;;;;2.63;1.10;;;;;;;18.41;57.65;100634.28;4809258;29;20039;-72
2020/12/22 05:40:31;;;;;;;3.15;1.00;;;;;;;18.43;57.45;100646.50;4803673;29;20058;-72
2020/12/22 05:42:58;;;;;;;1.95;1.20;;;;;;;18.43;57.62;100648.25;4801096;29;20036;-72
2020/12/22 05:45:23;;;;;;;1.73;0.98;;;;;;;18.41;57.75;100642.13;4786815;29;20035;-72
2020/12/22 05:47:52;;;;;;;1.70;1.00;;;;;;;18.43;57.59;100640.38;4800951;29;20095;-78
2020/12/22 05:50:19;;;;;;;2.13;1.13;;;;;;;18.48;57.86;100642.06;4803592;29;20079;-76
2020/12/22 05:52:45;;;;;;;2.85;1.00;;;;;;;18.49;57.49;100643.81;4804068;29;20039;-77
2020/12/22 05:55:11;;;;;;;3.63;1.50;;;;;;;18.49;57.56;100637.69;4803784;29;20057;-74
2020/12/22 05:57:36;;;;;;;2.40;1.20;;;;;;;18.52;57.64;100653.41;4806815;29;20035;-73
2020/12/22 06:00:14;;;;;;;3.05;1.23;;;;;;;18.52;57.71;100658.63;4812352;29;20039;-73
2020/12/22 06:02:40;;;;;;;2.28;1.00;;;;;;;18.52;57.59;100656.00;4804544;29;20038;-72
2020/12/22 06:05:05;;;;;;;2.70;1.20;;;;;;;18.49;57.68;100659.53;4809066;29;20054;-72
2020/12/22 06:07:31;;;;;;;3.55;1.35;;;;;;;18.46;57.98;100675.25;4808974;29;20035;-70
2020/12/22 06:09:56;;;;;;;5.18;1.33;;;;;;;18.48;57.97;100663.00;4808526;29;20054;-70
2020/12/22 06:12:23;;;;;;;4.80;1.23;;;;;;;18.54;57.78;100680.44;4805864;29;20034;-69
2020/12/22 06:14:55;;;;;;;4.60;1.20;;;;;;;18.68;57.55;100670.75;4805958;29;20051;-70
2020/12/22 06:17:21;;;;;;;8.48;1.88;;;;;;;18.73;57.58;100686.41;4806251;29;20164;-71
2020/12/22 06:19:48;;;;;;;7.22;1.70;;;;;;;18.74;57.75;100680.28;4807015;29;20046;-71
2020/12/22 06:22:16;;;;;;;6.60;1.70;;;;;;;18.82;57.40;100689.84;4803785;29;20027;-71
2020/12/22 06:24:42;;;;;;;4.43;1.50;;;;;;;18.92;57.04;100690.63;4803046;29;20095;-70
2020/12/22 06:27:09;;;;;;;3.97;1.83;;;;;;;18.91;57.16;100700.25;4808661;29;20030;-70
2020/12/22 06:29:40;;;;;;;3.65;1.98;;;;;;;18.90;57.40;100703.75;4790641;29;20038;-70
2020/12/22 06:32:26;;;;;;;2.55;1.88;;;;;;;19.02;56.84;100708.00;4819003;29;20506;-70
2020/12/22 06:34:53;;;;;;;5.40;1.92;;;;;;;19.01;56.91;100714.13;4806391;29;20042;-70
2020/12/22 06:37:42;;;;;;;3.63;1.50;;;;;;;18.98;57.13;100721.13;4808078;29;20500;-70
2020/12/22 06:40:09;;;;;;;3.05;1.30;;;;;;;19.02;56.93;100718.47;4805092;29;20395;-71
2020/12/22 06:42:42;;;;;;;5.88;2.35;;;;;;;19.07;56.99;100721.06;4808201;29;20034;-71
2020/12/22 06:45:30;;;;;;;3.25;1.60;;;;;;;18.99;57.13;100712.38;4810484;29;20035;-71
2020/12/22 06:47:56;;;;;;;3.92;1.60;;;;;;;19.05;56.75;100723.72;4805858;29;20058;-71
2020/12/22 06:50:41;;;;;;;2.97;1.90;;;;;;;19.10;56.94;100731.50;4820190;29;20076;-70
2020/12/22 06:53:33;;;;;;;4.93;1.58;;;;;;;19.06;57.12;100738.56;4807047;29;20055;-70
2020/12/22 06:55:59;;;;;;;3.65;1.55;;;;;;;19.11;56.96;100744.59;4805880;29;20035;-71
2020/12/22 06:58:41;;;;;;;2.55;1.30;;;;;;;19.12;56.72;100750.72;4806037;29;20543;-71
2020/12/22 07:01:28;;;;;;;5.00;1.63;;;;;;;19.11;56.88;100756.84;4805572;29;20379;-70
2020/12/22 07:04:09;;;;;;;2.95;1.50;;;;;;;19.13;56.78;100758.56;4819446;29;20468;-70
2020/12/22 07:06:48;;;;;;;3.97;1.67;;;;;;;19.19;56.93;100765.53;4807023;29;20432;-70
2020/12/22 07:09:16;;;;;;;3.78;1.38;;;;;;;19.16;56.80;100778.66;4806867;29;20034;-70
2020/12/22 07:11:41;;;;;;;3.13;1.83;;;;;;;19.18;57.07;100769.88;4807325;29;20038;-70
2020/12/22 07:14:07;;;;;;;4.97;1.60;;;;;;;19.27;56.70;100779.41;4807974;29;20401;-70
2020/12/22 07:16:54;;;;;;;3.38;1.15;;;;;;;19.22;56.89;100778.56;4805973;29;20375;-70
2020/12/22 07:19:30;;;;;;;5.47;1.90;;;;;;;19.25;56.81;100789.03;4806022;29;20386;-70
2020/12/22 07:21:57;;;;;;;6.28;2.20;;;;;;;19.27;56.90;100793.41;4808572;29;20041;-72
2020/12/22 07:24:24;;;;;;;3.75;1.80;;;;;;;19.21;56.99;100782.09;4803296;29;20085;-72
2020/12/22 07:26:49;;;;;;;4.22;2.10;;;;;;;19.21;57.04;100796.06;4807976;29;20503;-72
2020/12/22 07:29:14;;;;;;;4.13;2.05;;;;;;;19.30;56.87;100808.22;4791647;29;20039;-72
2020/12/22 07:31:42;;;;;;;5.40;1.85;;;;;;;19.25;56.93;100810.00;4807763;29;20121;-72
2020/12/22 07:34:08;;;;;;;3.30;1.73;;;;;;;19.24;56.96;100818.75;4807870;29;20367;-72
2020/12/22 07:36:33;;;;;;;4.50;1.77;;;;;;;19.31;56.78;100822.22;4806682;29;20037;-72
2020/12/22 07:39:18;;;;;;;5.30;1.75;;;;;;;19.30;56.66;100825.72;4807774;29;20042;-72
2020/12/22 07:41:45;;;;;;;3.78;1.75;;;;;;;19.27;57.04;100827.47;4804148;29;20027;-72
2020/12/22 07:44:18;;;;;;;2.85;1.58;;;;;;;19.34;56.95;100843.19;4806251;29;20126;-70
2020/12/22 07:46:46;;;;;;;2.63;1.25;;;;;;;19.33;56.68;100846.69;4807310;29;20035;-70
2020/12/22 07:49:13;;;;;;;6.22;2.03;;;;;;;19.27;56.84;100856.31;4800024;29;20039;-70
2020/12/22 07:51:45;;;;;;;2.75;1.48;;;;;;;19.36;56.74;100864.97;4804877;29;20047;-70
2020/12/22 07:54:11;;;;;;;2.63;1.50;;;;;;;19.36;56.67;100876.34;4806574;29;20057;-70
2020/12/22 07:56:39;;;;;;;2.95;1.70;;;;;;;19.32;56.84;100885.13;4806618;29;20046;-69
2020/12/22 07:59:12;;;;;;;4.72;1.83;;;;;;;19.35;56.99;100906.06;4807247;29;20422;-70
2020/12/22 08:01:50;;;;;;;3.85;2.00;;;;;;;19.39;56.70;100906.91;4805179;29;20532;-70
2020/12/22 08:04:26;;;;;;;2.58;1.33;;;;;;;19.36;56.85;100912.19;4806304;29;20126;-72
2020/12/22 08:06:52;;;;;;;3.33;1.90;;;;;;;19.37;56.86;100924.41;4805408;29;20035;-70
2020/12/22 08:09:24;;;;;;;3.10;1.50;;;;;;;19.43;56.52;100930.50;4804924;29;20049;-70
2020/12/22 08:11:52;;;;;;;2.95;1.40;;;;;;;19.38;56.64;100941.88;4804940;29;20038;-70
2020/12/22 08:14:18;;;;;;;3.70;1.70;;;;;;;19.39;56.71;100948.88;4805157;29;20041;-70
2020/12/22 08:16:43;;;;;;;2.85;1.52;;;;;;;19.39;56.82;100946.25;4805580;29;20383;-70
2020/12/22 08:19:09;;;;;;;6.45;1.90;;;;;;;19.46;57.59;100964.59;4806999;29;20043;-69
2020/12/22 08:21:35;;;;;;;3.80;1.75;;;;;;;19.42;57.32;100970.72;4803246;29;20032;-69
2020/12/22 08:24:01;;;;;;;6.30;1.85;;;;;;;19.41;57.66;100979.47;4802975;29;20034;-71
2020/12/22 08:26:28;;;;;;;3.67;1.65;;;;;;;19.47;57.51;100987.31;4805285;29;20100;-71
2020/12/22 08:28:56;;;;;;;4.28;1.38;;;;;;;19.49;57.23;100996.03;4790667;29;20108;-71
2020/12/22 08:31:26;;;;;;;2.47;1.27;;;;;;;19.42;57.36;101007.44;4806741;29;20096;-71
2020/12/22 08:33:58;;;;;;;7.03;2.22;;;;;;;19.48;57.33;101014.38;4811662;29;20042;-71
2020/12/22 08:36:27;;;;;;;6.97;2.17;;;;;;;19.50;56.95;101005.66;4804733;29;20030;-71
2020/12/22 08:39:11;;;;;;;3.25;1.48;;;;;;;19.47;56.85;101010.91;4804071;29;20090;-72
2020/12/22 08:41:37;;;;;;;3.30;1.42;;;;;;;19.47;57.45;101002.16;4807319;29;20034;-69
2020/12/22 08:44:04;;;;;;;3.67;1.92;;;;;;;19.55;56.93;101013.50;4786247;29;20042;-70
2020/12/22 08:46:29;;;;;;;3.78;1.15;;;;;;;19.50;56.99;101024.00;4821211;29;20061;-70
2020/12/22 08:48:54;;;;;;;3.97;1.25;;;;;;;19.49;57.08;101029.25;4803978;29;20065;-70
2020/12/22 08:51:27;;;;;;;2.85;1.50;;;;;;;19.57;56.77;101041.47;4798611;29;20432;-70
2020/12/22 08:53:56;;;;;;;4.65;1.55;;;;;;;19.52;57.09;101038.00;4802297;29;20574;-70
2020/12/22 08:56:24;;;;;;;1.95;1.17;;;;;;;19.49;57.05;101045.88;4805559;29;20394;-70
2020/12/22 08:59:00;;;;;;;2.83;1.10;;;;;;;19.56;56.84;101063.34;4803252;29;20042;-70
2020/12/22 09:01:38;;;;;;;4.40;1.63;;;;;;;19.54;56.87;101065.09;4805048;29;20072;-70
2020/12/22 09:04:03;;;;;;;4.10;1.25;;;;;;;19.50;56.91;101068.59;4804286;29;20049;-70
2020/12/22 09:06:46;;;;;;;2.30;0.95;;;;;;;19.59;56.69;101086.94;4803361;29;20391;-70
2020/12/22 09:09:16;;;;;;;1.70;1.13;;;;;;;19.56;56.82;101094.81;4799975;29;20042;-70
2020/12/22 09:11:42;;;;;;;2.47;1.13;;;;;;;19.51;56.91;101093.97;4805164;29;20490;-70
2020/12/22 09:14:14;;;;;;;2.22;0.90;;;;;;;19.57;56.73;101095.69;4797137;29;20153;-69
2020/12/22 09:16:56;;;;;;;3.38;1.08;;;;;;;19.49;56.77;101087.84;4805072;29;20117;-70
2020/12/22 09:19:29;;;;;;;2.25;1.10;;;;;;;19.56;56.78;101118.44;4816720;29;20073;-70
2020/12/22 09:22:02;;;;;;;2.45;1.15;;;;;;;19.60;56.54;101127.16;4804876;29;20053;-70
2020/12/22 09:24:28;;;;;;;2.25;0.95;;;;;;;19.59;56.50;101139.41;4799190;29;20039;-69
2020/12/22 09:26:58;;;;;;;2.72;1.15;;;;;;;19.57;56.92;101149.03;4803104;29;20057;-70
2020/12/22 09:29:25;;;;;;;3.03;1.80;;;;;;;19.66;56.47;101152.47;4800474;29;20427;-70
2020/12/22 09:31:51;;;;;;;2.05;0.93;;;;;;;19.63;56.48;101154.22;4805051;29;20368;-70
2020/12/22 09:34:16;;;;;;;2.00;0.80;;;;;;;19.57;56.86;101159.53;4789432;29;20050;-70
2020/12/22 09:36:42;;;;;;;2.40;1.05;;;;;;;19.62;56.49;101156.84;4803768;29;20049;-70
2020/12/22 09:39:07;;;;;;;1.70;0.77;;;;;;;19.65;56.52;101161.22;4770667;30;20039;-70
2020/12/22 09:41:40;;;;;;;2.08;0.95;;;;;;;19.56;56.43;101168.28;4788101;30;20031;-71
2020/12/22 09:44:05;;;;;;;1.17;0.80;;;;;;;19.51;56.81;101177.03;4802204;29;20035;-70
2020/12/22 09:46:31;;;;;;;2.28;0.80;;;;;;;19.44;56.94;101178.78;4804117;29;20047;-70
2020/12/22 09:48:56;;;;;;;1.63;0.90;;;;;;;19.37;57.11;101189.28;4802345;29;20031;-70
2020/12/22 09:51:21;;;;;;;1.58;0.70;;;;;;;19.33;57.37;101190.19;4788805;29;20066;-70
2020/12/22 09:53:47;;;;;;;2.70;0.90;;;;;;;19.34;57.38;101203.28;4805235;29;20055;-69
2020/12/22 09:56:12;;;;;;;3.10;1.00;;;;;;;19.31;57.37;101205.03;4801691;29;20100;-70
2020/12/22 09:58:37;;;;;;;1.60;0.88;;;;;;;19.32;57.49;101223.41;4805382;29;20034;-70
2020/12/22 10:01:03;;;;;;;3.08;1.40;;;;;;;19.28;57.37;101222.53;4804163;29;20053;-70
2020/12/22 10:03:28;;;;;;;2.03;0.90;;;;;;;19.27;57.39;101230.38;4804239;29;20034;-70
2020/12/22 10:05:53;;;;;;;2.42;0.90;;;;;;;19.26;57.68;101233.88;4804995;29;20042;-70
2020/12/22 10:08:19;;;;;;;1.85;0.90;;;;;;;19.26;57.31;101242.63;4774570;29;20045;-70
2020/12/22 10:10:44;;;;;;;4.13;0.98;;;;;;;19.23;57.31;101236.50;4805383;29;20043;-70
2020/12/22 10:13:09;;;;;;;4.55;1.00;;;;;;;19.17;57.45;101233.91;4803293;29;20045;-70
2020/12/22 10:15:35;;;;;;;1.50;0.90;;;;;;;19.19;57.50;101245.28;4817054;29;21675;-70
2020/12/22 10:18:00;;;;;;;1.27;0.80;;;;;;;19.21;57.58;101259.25;4804915;29;20050;-70
2020/12/22 10:20:25;;;;;;;3.08;0.90;;;;;;;19.23;57.30;101258.34;4804423;29;20151;-70
2020/12/22 10:22:51;;;;;;;2.08;1.10;;;;;;;19.34;56.93;101273.22;4804523;29;20034;-71
2020/12/22 10:25:16;;;;;;;3.17;1.55;;;;;;;19.33;56.84;101274.97;4809245;29;20039;-71
2020/12/22 10:27:42;;;;;;;2.28;0.80;;;;;;;19.38;56.53;101277.56;4794377;29;20038;-70
2020/12/22 10:30:07;;;;;;;2.60;1.52;;;;;;;19.48;56.48;101277.53;4790023;29;20046;-70
2020/12/22 10:32:32;;;;;;;1.40;0.80;;;;;;;19.46;56.51;101279.31;4805910;29;20185;-70
2020/12/22 10:34:58;;;;;;;1.58;1.00;;;;;;;19.45;56.72;101280.19;4804049;29;20034;-70
2020/12/22 10:37:23;;;;;;;1.92;0.82;;;;;;;19.55;56.34;101274.06;4807453;29;20039;-70
2020/12/22 10:39:51;;;;;;;2.03;1.00;;;;;;;19.56;56.29;101275.81;4804329;29;20049;-70
2020/12/22 10:42:20;;;;;;;2.28;1.02;;;;;;;19.50;56.40;101283.69;4803519;29;20506;-71
2020/12/22 10:44:45;;;;;;;5.75;0.80;;;;;;;19.52;56.27;101279.31;4824043;29;20115;-71
2020/12/22 10:47:10;;;;;;;1.20;0.60;;;;;;;19.56;56.27;101288.94;4803879;29;20069;-72
2020/12/22 10:49:36;;;;;;;3.58;1.38;;;;;;;19.52;56.36;101297.69;4798339;29;20042;-71
2020/12/22 10:52:01;;;;;;;2.38;1.08;;;;;;;19.59;56.17;101296.81;4808896;29;20054;-71
2020/12/22 10:54:27;;;;;;;1.55;0.57;;;;;;;19.62;56.03;101291.53;4810547;29;20058;-71
2020/12/22 10:56:52;;;;;;;2.58;0.90;;;;;;;19.58;56.03;101291.56;4766955;29;20042;-71
2020/12/22 10:59:17;;;;;;;2.38;1.25;;;;;;;19.57;56.26;101297.69;4806073;29;20077;-70
2020/12/22 11:01:43;;;;;;;3.08;0.80;;;;;;;19.65;55.80;101302.91;4774937;29;20037;-70
2020/12/22 11:04:09;;;;;;;1.65;0.98;;;;;;;19.61;56.07;101302.91;4788630;29;20062;-70
2020/12/22 11:06:48;;;;;;;1.13;0.70;;;;;;;19.60;56.15;101305.56;4806885;29;20067;-70
2020/12/22 11:09:13;;;;;;;2.30;0.80;;;;;;;19.66;55.80;101309.91;4803192;29;20027;-70
2020/12/22 11:11:43;;;;;;;1.52;0.65;;;;;;;19.62;55.94;101311.66;4796998;29;20035;-70
2020/12/22 11:14:08;;;;;;;1.15;0.52;;;;;;;19.58;56.11;101318.69;4824320;29;20065;-70
2020/12/22 11:16:35;;;;;;;2.88;0.75;;;;;;;19.57;55.73;101306.44;4805413;29;20117;-70
2020/12/22 11:19:00;;;;;;;1.48;0.60;;;;;;;19.63;55.72;101318.66;4788317;29;20035;-70
2020/12/22 11:21:26;;;;;;;1.10;0.70;;;;;;;19.61;56.12;101328.25;4789249;29;20039;-70
2020/12/22 11:23:51;;;;;;;2.92;0.90;;;;;;;19.67;55.83;101327.41;4797454;29;20023;-70
2020/12/22 11:26:21;;;;;;;1.60;0.70;;;;;;;19.69;55.74;101323.91;4771765;30;20058;-70